• Join FlightAware (Why Join?)
  • Login
  • US Flag 
01:25AM EDT


 

Airport Tracker/Info


-or-


 

Live Flight TrackerFlight Track Log ✈ SWA1881 ✈ 01-Nov-2013 ✈ KBNA - KECP

Flight Track Log - Related Links

Times and Time Zones

All times are in EDT time to prevent confusion due to time zone crossing. See the SWA1881 flight status page for this flight to view local times or setup timezone preferences in your user account.

Time Position Orientation Groundspeed Altitude Reporting Facility
EDT Latitude Longitude Course Direction KTS MPH feet Rate Location/Type
07:46PM 36.0500 -86.6833 180° South 197 227 3,100  Level Nashville TRACON
07:47PM 35.9833 -86.7000 191° South 278 320 6,000 3,000 Climbing Nashville TRACON
07:48PM 35.9069 -86.7128 188° South 286 329 9,400 3,300 Climbing Memphis Center
07:49PM 35.8197 -86.7242 186° South 307 353 12,600 3,600 Climbing Memphis Center
07:50PM 35.7281 -86.7283 182° South 329 379 16,700 3,300 Climbing Memphis Center
07:52PM 35.4914 -86.6992 174° South 373 429 23,800 2,700 Climbing Atlanta Center
07:53PM 35.3789 -86.6853 174° South 378 435 25,800 1,920 Climbing Atlanta Center
07:54PM 35.2644 -86.6714 174° South 388 447 27,700 1,740 Climbing Atlanta Center
07:55PM 35.1500 -86.6553 173° South 408 470 29,300 1,560 Climbing Atlanta Center
07:56PM 35.0294 -86.6436 175° South 420 483 30,900 1,800 Climbing Atlanta Center
07:57PM 34.9150 -86.6275 173° South 425 489 32,900 1,620 Climbing Atlanta Center
07:58PM 34.7961 -86.6136 175° South 425 489 34,200 1,200 Climbing Atlanta Center
07:59PM 34.6756 -86.5975 174° South 425 489 35,300 1,200 Climbing Atlanta Center
08:00PM 34.5569 -86.5836 174° South 430 495 36,600 840 Climbing Atlanta Center
08:01PM 34.4342 -86.5650 173° South 435 501 37,000 180 Climbing Atlanta Center
08:02PM 34.3136 -86.5436 172° South 435 501 37,000  Level Atlanta Center
08:03PM 34.1950 -86.5225 172° South 441 507 37,000  Level Atlanta Center
08:04PM 34.0722 -86.5014 172° South 441 507 37,000  Level Atlanta Center
08:05PM 33.9558 -86.4806 172° South 441 507 37,000  Level Atlanta Center
08:06PM 33.8331 -86.4597 172° South 441 507 37,000  Level Atlanta Center
08:07PM 33.7144 -86.4389 172° South 441 507 37,000  Level Atlanta Center
08:08PM 33.5939 -86.4181 172° South 441 507 37,000  Level Atlanta Center
08:09PM 33.4878 -86.4050 174° South 441 507 37,000  Level Atlanta Center
08:10PM 33.3692 -86.3819 171° South 441 507 37,000  Level Atlanta Center
08:11PM 33.2486 -86.3589 171° South 446 513 37,000  Level Atlanta Center
08:12PM 33.1300 -86.3383 172° South 441 507 37,000  Level Atlanta Center
08:13PM 33.0092 -86.3178 172° South 441 507 37,000 -120 Level Atlanta Center
08:14PM 32.8906 -86.2975 172° South 441 507 36,800 -600 Descending Atlanta Center
08:15PM 32.7719 -86.2794 173° South 441 507 35,800 -900 Descending Atlanta Center
08:16PM 32.6514 -86.2567 171° South 441 507 35,000 -420 Descending Atlanta Center
08:17PM 32.5347 -86.2389 173° South 441 507 35,000 -300 Level Atlanta Center
08:18PM 32.4119 -86.2186 172° South 441 507 34,500 -780 Descending Atlanta Center
08:19PM 32.2975 -86.2011 173° South 441 507 33,500 -1,200 Descending Atlanta Center
08:21PM 32.0825 -86.1633 172° South 391 450 31,000 -1,680 Descending Jacksonville Center
08:22PM 31.9828 -86.1478 172° South 398 458 28,600 -2,460 Descending Jacksonville Center
08:23PM 31.8789 -86.1292 171° South 386 444 26,100 -2,340 Descending Jacksonville Center
08:24PM 31.7769 -86.1136 173° South 381 438 24,000 -1,080 Descending Jacksonville Center
08:25PM 31.6750 -86.0953 171° South 381 438 24,000 -780 Level Jacksonville Center
08:26PM 31.5775 -86.0797 172° South 370 426 22,500 -1,980 Descending Jacksonville Center
08:27PM 31.4756 -86.0642 173° South 370 426 20,100 -2,580 Descending Jacksonville Center
08:27PM 31.4547 -86.0586 167° South 368 423 19,700 -2,100 Descending Jacksonville Center
08:28PM 31.3778 -86.0461 172° South 370 426 18,000 -2,220 Descending Jacksonville Center
08:29PM 31.3611 -86.0456 178° South 351 404 17,500 -1,740 Descending Jacksonville Center
08:29PM 31.2842 -86.0308 171° South 359 413 16,300 -1,740 Descending Jacksonville Center
08:30PM 31.2675 -86.0278 171° South 330 380 15,800 -1,740 Descending Jacksonville Center
08:30PM 31.1969 -86.0158 172° South 342 394 14,600 -1,620 Descending Jacksonville Center
08:31PM 31.1783 -86.0103 166° South 310 357 14,200 -1,620 Descending Jacksonville Center
08:31PM 31.1158 -86.0011 173° South 321 369 13,000 -1,620 Descending Jacksonville Center
08:32PM 31.0972 -85.9931 160° South 297 342 12,600 -1,620 Descending Jacksonville Center
08:32PM 31.0369 -85.9814 171° South 309 356 11,400 -1,320 Descending Jacksonville Center
08:33PM 30.9622 -85.9619 167° South 291 335 10,200 -1,080 Descending Jacksonville Center
08:34PM 30.8939 -85.9478 170° South 272 313 9,300 -1,140 Descending Jacksonville Center
08:35PM 30.8231 -85.9381 173° South 260 299 8,000 -1,320 Descending Jacksonville Center
08:36PM 30.7544 -85.9214 168° South 255 293 6,700 -1,320 Descending Jacksonville Center
08:37PM 30.6861 -85.9072 170° South 255 293 5,400 -960 Descending Jacksonville Center
08:38PM 30.6194 -85.8931 170° South 255 293 4,800 -660 Descending Jacksonville Center
08:39PM 30.5656 -85.8842 172° South 233 268 4,100 -900 Descending Jacksonville Center
08:40PM 30.5117 -85.8631 161° South 214 246 3,000 -1,080 Descending Jacksonville Center
08:41PM 30.4622 -85.8397 158° South 202 232 2,000 -960 Descending Jacksonville Center
08:42PM 30.4167 -85.8217 161° South 187 215 1,100 -900 Descending Jacksonville Center
08:43PM 30.3794 -85.8036 157° South 165 190 300 -540 Descending Jacksonville Center
08:44PM 30.3319 -85.7828 159° South 165 190 100 -240 Descending Jacksonville Center
08:46PM 30.3500 -85.7833 337° Northwest  Level FlightAware Approximate